Norfolk, Virginia
Traffic Map
Current Weather Conditions
Norfolk, Virginia
Scattered Clouds
Scattered Clouds
32°
Feels Like: 35°
Wind Chill: 32° Ceiling: Unl
Heat Index: 35° Visibility: 10mi
Dew Point: 21° Wind: 10mph
Humidity: 50% Direction: 230° (SW)
Pressure: 29.96in Gusts: 0mph
Raw Report DataKORF 271751Z 23009KT 10SM SCT041 32/21 A2996 RMK AO2 SLP145 T03220206 10322 20239 58029
Traffic Incident Summary
Active as of:
Severity:
Category:
InformationThere was an issue retrieving the traffic information for this location. Please try a different location or try again shortly.
Advertisements